createdAt,value
2019-05-20T00:02:24.518Z,49.77
2019-05-20T00:04:44.281Z,49.77
2019-05-20T00:07:14.632Z,49.77
2019-05-20T00:09:44.872Z,49.73
2019-05-20T00:12:15.224Z,49.72
2019-05-20T00:14:45.510Z,49.72
2019-05-20T00:17:15.663Z,49.68
2019-05-20T00:19:45.951Z,49.68
2019-05-20T00:22:16.476Z,49.65
2019-05-20T00:24:46.701Z,49.61
2019-05-20T00:27:17.023Z,49.60
2019-05-20T00:29:47.278Z,49.62
2019-05-20T00:32:17.604Z,49.55
2019-05-20T00:34:47.989Z,49.57
2019-05-20T00:37:18.137Z,49.53
2019-05-20T00:39:48.463Z,49.55
2019-05-20T00:42:18.779Z,49.55
2019-05-20T00:44:49.062Z,49.51
2019-05-20T00:47:19.301Z,49.53
2019-05-20T00:49:49.602Z,49.50
2019-05-20T00:52:19.951Z,49.48
2019-05-20T00:54:50.191Z,49.44
2019-05-20T00:57:20.436Z,49.45
2019-05-20T00:59:50.736Z,49.45
2019-05-20T01:02:21.085Z,49.43
2019-05-20T01:04:51.341Z,49.41
2019-05-20T01:07:21.623Z,49.42
2019-05-20T01:09:51.888Z,49.36
2019-05-20T01:12:22.079Z,49.35
2019-05-20T01:14:52.332Z,49.34
2019-05-20T01:17:23.712Z,49.31
2019-05-20T01:19:53.928Z,49.33
2019-05-20T01:22:24.203Z,49.29
2019-05-20T01:24:54.383Z,49.29
2019-05-20T01:27:24.867Z,49.27
2019-05-20T01:29:55.247Z,49.25
2019-05-20T01:32:25.479Z,49.21
2019-05-20T01:34:55.822Z,49.20
2019-05-20T01:37:26.046Z,49.19
2019-05-20T01:39:56.236Z,49.15
2019-05-20T01:42:26.485Z,49.15
2019-05-20T01:44:56.957Z,49.19
2019-05-20T01:47:27.336Z,49.14
2019-05-20T01:49:57.521Z,49.10
2019-05-20T01:52:27.786Z,49.09
2019-05-20T01:54:58.136Z,49.07
2019-05-20T01:57:28.457Z,49.06
2019-05-20T01:59:58.779Z,49.06
2019-05-20T02:02:28.935Z,49.07
2019-05-20T02:04:59.183Z,49.04
2019-05-20T02:07:29.450Z,49.01
2019-05-20T02:09:59.832Z,49.04
2019-05-20T02:12:30.023Z,49.03
2019-05-20T02:15:05.915Z,49.03
2019-05-20T02:17:36.168Z,49.00
2019-05-20T02:20:07.174Z,49.00
2019-05-20T02:22:38.438Z,48.94
2019-05-20T02:25:08.776Z,48.97
2019-05-20T02:27:39.365Z,48.94
2019-05-20T02:30:10.472Z,48.93
2019-05-20T02:32:40.761Z,48.91
2019-05-20T02:35:11.114Z,48.89
2019-05-20T02:37:41.307Z,48.89
2019-05-20T02:40:12.554Z,48.88
2019-05-20T02:42:42.777Z,48.83
2019-05-20T02:45:13.227Z,48.76
2019-05-20T02:47:43.471Z,48.72
2019-05-20T02:50:13.842Z,48.74
2019-05-20T02:52:45.044Z,48.69
2019-05-20T02:55:15.343Z,48.59
2019-05-20T02:57:45.582Z,48.66
2019-05-20T03:00:15.976Z,48.76
2019-05-20T03:02:46.168Z,48.74
2019-05-20T03:05:16.389Z,48.69
2019-05-20T03:07:46.700Z,48.67
2019-05-20T03:10:17.037Z,48.55
2019-05-20T03:12:47.311Z,48.68
2019-05-20T03:15:17.690Z,47.84
2019-05-20T03:17:47.962Z,47.22
2019-05-20T03:20:18.253Z,47.45
2019-05-20T03:22:48.504Z,47.64
2019-05-20T03:25:18.881Z,47.88
2019-05-20T03:27:49.142Z,48.07
2019-05-20T03:30:19.413Z,48.20
2019-05-20T03:32:49.634Z,48.21
2019-05-20T03:35:19.920Z,48.23
2019-05-20T03:37:50.236Z,48.22
2019-05-20T03:40:20.560Z,48.27
2019-05-20T03:42:50.781Z,48.28
2019-05-20T03:45:20.994Z,48.30
2019-05-20T03:47:51.361Z,48.30
2019-05-20T03:50:21.851Z,48.35
2019-05-20T03:52:52.203Z,48.35
2019-05-20T03:55:22.536Z,48.35
2019-05-20T03:57:52.740Z,48.35
2019-05-20T04:00:47.885Z,48.31
2019-05-20T04:03:18.244Z,48.34
2019-05-20T04:05:48.602Z,48.30
2019-05-20T04:08:18.885Z,48.30
2019-05-20T04:10:49.103Z,48.33
2019-05-20T04:13:19.255Z,48.28
2019-05-20T04:15:49.587Z,48.27
2019-05-20T04:18:19.975Z,48.25
2019-05-20T04:20:50.245Z,48.27
2019-05-20T04:23:20.517Z,48.29
2019-05-20T04:25:50.948Z,48.29
2019-05-20T04:28:21.119Z,48.30
2019-05-20T04:30:51.380Z,48.30
2019-05-20T04:33:21.628Z,48.32
2019-05-20T04:35:51.959Z,48.31
2019-05-20T04:38:22.128Z,48.33
2019-05-20T04:40:52.341Z,48.30
2019-05-20T04:43:22.691Z,48.30
2019-05-20T04:45:53.049Z,48.25
2019-05-20T04:48:23.345Z,48.27
2019-05-20T04:50:53.705Z,48.27
2019-05-20T04:53:24.022Z,48.13
2019-05-20T04:55:54.346Z,48.13
2019-05-20T04:58:24.669Z,48.13
2019-05-20T05:00:58.994Z,48.17
2019-05-20T05:03:29.235Z,48.19
2019-05-20T05:05:59.610Z,48.20
2019-05-20T05:08:29.859Z,48.11
2019-05-20T05:11:00.148Z,48.13
2019-05-20T05:13:30.497Z,48.04
2019-05-20T05:16:00.749Z,47.99
2019-05-20T05:18:31.003Z,48.04
2019-05-20T05:21:01.325Z,48.02
2019-05-20T05:23:31.709Z,48.01
2019-05-20T05:26:02.008Z,48.05
2019-05-20T05:28:32.386Z,48.04
2019-05-20T05:31:02.781Z,48.08
2019-05-20T05:33:33.080Z,48.11
2019-05-20T05:36:03.402Z,48.13
2019-05-20T05:38:33.718Z,48.14
2019-05-20T05:41:04.050Z,48.08
2019-05-20T05:43:34.441Z,48.03
2019-05-20T05:46:04.699Z,48.11
2019-05-20T05:48:35.085Z,48.25
2019-05-20T05:51:05.435Z,48.30
2019-05-20T05:53:35.871Z,48.21
2019-05-20T05:56:06.192Z,48.14
2019-05-20T05:58:36.569Z,48.28
2019-05-20T06:01:06.781Z,48.35
2019-05-20T06:03:37.015Z,47.68
2019-05-20T06:06:12.719Z,47.17
2019-05-20T06:08:39.267Z,47.51
2019-05-20T06:11:09.478Z,47.74
2019-05-20T06:13:39.838Z,48.05
2019-05-20T06:16:09.968Z,48.13
2019-05-20T06:18:40.182Z,48.21
2019-05-20T06:21:10.364Z,48.36
2019-05-20T06:23:40.567Z,48.51
2019-05-20T06:26:10.834Z,49.04
2019-05-20T06:28:41.097Z,49.27
2019-05-20T06:31:11.528Z,49.30
2019-05-20T06:33:41.908Z,49.27
2019-05-20T06:36:25.945Z,49.20
2019-05-20T06:38:47.655Z,49.26
2019-05-20T06:41:18.267Z,49.30
2019-05-20T06:43:49.007Z,49.47
2019-05-20T06:46:19.264Z,49.53
2019-05-20T06:48:49.744Z,49.57
2019-05-20T06:51:19.973Z,49.62
2019-05-20T06:53:48.620Z,49.66
2019-05-20T06:56:17.155Z,49.73
2019-05-20T06:58:47.780Z,49.49
2019-05-20T07:01:18.117Z,49.30
2019-05-20T07:03:48.503Z,49.28
2019-05-20T07:06:18.811Z,49.17
2019-05-20T07:08:49.322Z,49.14
2019-05-20T07:11:19.713Z,49.11
2019-05-20T07:13:50.708Z,49.06
2019-05-20T07:16:20.982Z,48.99
2019-05-20T07:18:53.588Z,48.93
2019-05-20T07:21:23.881Z,48.87
2019-05-20T07:23:54.233Z,48.83
2019-05-20T07:26:24.559Z,48.79
2019-05-20T07:28:54.949Z,48.76
2019-05-20T07:31:25.401Z,48.76
2019-05-20T07:33:55.690Z,48.69
2019-05-20T07:36:25.851Z,48.65
2019-05-20T07:38:56.212Z,48.64
2019-05-20T07:41:26.389Z,48.63
2019-05-20T07:43:56.667Z,48.58
2019-05-20T07:46:26.862Z,48.59
2019-05-20T07:48:57.199Z,48.55
2019-05-20T07:51:27.576Z,48.55
2019-05-20T07:53:58.026Z,48.54
2019-05-20T07:56:30.115Z,48.53
2019-05-20T07:59:02.234Z,48.50
2019-05-20T08:01:32.551Z,48.50
2019-05-20T08:04:02.772Z,48.49
2019-05-20T08:06:32.997Z,48.47
2019-05-20T08:09:03.635Z,48.47
2019-05-20T08:11:35.697Z,48.44
2019-05-20T08:14:05.826Z,48.44
2019-05-20T08:16:36.083Z,48.43
2019-05-20T08:19:06.674Z,48.45
2019-05-20T08:21:36.942Z,48.43
2019-05-20T08:24:07.360Z,48.41
2019-05-20T08:26:37.587Z,48.41
2019-05-20T08:29:07.802Z,48.41
2019-05-20T08:31:38.280Z,48.41
2019-05-20T08:34:08.555Z,48.38
2019-05-20T08:36:38.785Z,48.36
2019-05-20T08:39:09.845Z,48.40
2019-05-20T08:41:40.123Z,48.36
2019-05-20T08:44:10.394Z,48.39
2019-05-20T08:46:41.607Z,48.37
2019-05-20T08:49:11.994Z,48.40
2019-05-20T08:51:42.372Z,48.41
2019-05-20T08:54:12.707Z,48.44
2019-05-20T08:56:42.954Z,48.33
2019-05-20T08:59:13.323Z,49.19
2019-05-20T09:01:43.665Z,49.61
2019-05-20T09:04:14.000Z,49.89
2019-05-20T09:06:44.244Z,50.31
2019-05-20T09:09:14.570Z,49.87
2019-05-20T09:11:47.715Z,50.14
2019-05-20T09:14:17.102Z,50.15
2019-05-20T09:16:47.577Z,50.25
2019-05-20T09:19:17.881Z,50.29
2019-05-20T09:21:48.206Z,50.34
2019-05-20T09:24:19.140Z,50.40
2019-05-20T09:26:49.802Z,50.69
2019-05-20T09:29:20.160Z,50.73
2019-05-20T09:31:50.798Z,50.80
2019-05-20T09:34:21.040Z,50.98
2019-05-20T09:36:51.643Z,50.85
2019-05-20T09:39:21.882Z,50.92
2019-05-20T09:41:52.248Z,50.72
2019-05-20T09:44:22.451Z,50.61
2019-05-20T09:46:52.770Z,50.53
2019-05-20T09:49:23.154Z,50.25
2019-05-20T09:51:53.924Z,50.30
2019-05-20T09:54:24.126Z,49.97
2019-05-20T09:56:54.473Z,50.09
2019-05-20T09:59:24.877Z,50.24
2019-05-20T10:01:55.212Z,50.23
2019-05-20T10:04:25.491Z,50.08
2019-05-20T10:06:55.977Z,51.14
2019-05-20T10:09:26.238Z,51.54
2019-05-20T10:11:56.631Z,50.81
2019-05-20T10:14:26.983Z,51.24
2019-05-20T10:16:57.348Z,51.77
2019-05-20T10:19:27.774Z,51.93
2019-05-20T10:21:58.096Z,52.00
2019-05-20T10:24:28.459Z,51.90
2019-05-20T10:26:58.672Z,51.45
2019-05-20T10:29:28.973Z,51.44
2019-05-20T10:31:59.172Z,51.56
2019-05-20T10:34:29.457Z,51.58
2019-05-20T10:37:00.260Z,52.56
2019-05-20T10:39:34.387Z,51.66
2019-05-20T10:42:04.640Z,53.20
2019-05-20T10:44:35.046Z,52.11
2019-05-20T10:47:05.315Z,51.80
2019-05-20T10:49:35.587Z,51.57
2019-05-20T10:52:05.770Z,51.58
2019-05-20T10:54:36.059Z,51.37
2019-05-20T10:57:06.646Z,51.39
2019-05-20T10:59:36.910Z,51.27
2019-05-20T11:02:10.491Z,51.20
2019-05-20T11:04:40.678Z,51.27
2019-05-20T11:07:11.094Z,51.23
2019-05-20T11:09:41.386Z,51.18
2019-05-20T11:12:11.738Z,51.20
2019-05-20T11:14:41.939Z,51.06
2019-05-20T11:17:14.968Z,50.91
2019-05-20T11:19:45.316Z,50.83
2019-05-20T11:22:15.796Z,50.82
2019-05-20T11:24:46.399Z,50.88
2019-05-20T11:27:16.662Z,50.83
2019-05-20T11:29:46.966Z,50.71
2019-05-20T11:32:17.319Z,50.62
2019-05-20T11:34:47.848Z,50.60
2019-05-20T11:37:18.183Z,50.60
2019-05-20T11:39:48.643Z,50.60
2019-05-20T11:42:19.021Z,50.76
2019-05-20T11:44:49.241Z,50.69
2019-05-20T11:47:19.429Z,50.74
2019-05-20T11:49:49.750Z,50.63
2019-05-20T11:52:20.454Z,50.62
2019-05-20T11:54:50.787Z,50.59
2019-05-20T11:57:21.290Z,50.63
2019-05-20T11:59:52.760Z,50.60
2019-05-20T12:02:22.988Z,50.88
2019-05-20T12:04:53.259Z,50.82
2019-05-20T12:07:23.647Z,50.91
2019-05-20T12:09:53.878Z,50.98
2019-05-20T12:12:24.074Z,51.05
2019-05-20T12:14:54.293Z,51.11
2019-05-20T12:17:24.486Z,51.14
2019-05-20T12:19:54.636Z,51.17
2019-05-20T12:22:25.156Z,51.19
2019-05-20T12:24:55.485Z,51.21
2019-05-20T12:27:25.820Z,51.30
2019-05-20T12:29:56.292Z,51.25
2019-05-20T12:32:26.639Z,51.12
2019-05-20T12:34:56.856Z,51.14
2019-05-20T12:37:27.047Z,51.06
2019-05-20T12:40:07.032Z,50.99
2019-05-20T12:42:29.300Z,50.87
2019-05-20T12:44:59.572Z,50.62
2019-05-20T12:47:29.726Z,50.45
2019-05-20T12:49:59.922Z,50.53
2019-05-20T12:52:30.258Z,50.54
2019-05-20T12:55:07.731Z,50.86
2019-05-20T12:57:32.412Z,51.07
2019-05-20T13:00:03.401Z,50.73
2019-05-20T13:02:33.832Z,50.71
2019-05-20T13:05:04.230Z,50.74
2019-05-20T13:07:35.603Z,50.49
2019-05-20T13:10:26.050Z,50.29
2019-05-20T13:12:39.189Z,50.45
2019-05-20T13:15:09.445Z,50.66
2019-05-20T13:17:44.142Z,50.76
2019-05-20T13:20:11.801Z,50.94
2019-05-20T13:22:42.065Z,51.22
2019-05-20T13:25:12.431Z,51.48
2019-05-20T13:27:43.044Z,51.60
2019-05-20T13:30:13.290Z,51.57
2019-05-20T13:32:43.637Z,51.55
2019-05-20T13:35:13.884Z,51.59
2019-05-20T13:37:44.188Z,51.85
2019-05-20T13:40:14.504Z,52.07
2019-05-20T13:42:44.810Z,52.08
2019-05-20T13:45:15.063Z,52.14
2019-05-20T13:47:45.564Z,52.11
2019-05-20T13:50:16.396Z,52.24
2019-05-20T13:52:46.642Z,52.21
2019-05-20T13:55:16.917Z,52.16
2019-05-20T13:57:48.350Z,52.26
2019-05-20T14:00:18.653Z,52.23
2019-05-20T14:02:48.847Z,52.25
2019-05-20T14:05:19.272Z,52.22
2019-05-20T14:07:49.563Z,52.19
2019-05-20T14:10:19.795Z,52.15
2019-05-20T14:12:50.153Z,52.20
2019-05-20T14:15:20.433Z,52.29
2019-05-20T14:17:50.848Z,52.46
2019-05-20T14:20:21.159Z,52.63
2019-05-20T14:22:51.564Z,52.53
2019-05-20T14:25:21.875Z,52.56
2019-05-20T14:27:52.213Z,52.57
2019-05-20T14:30:22.538Z,52.49
2019-05-20T14:32:52.810Z,52.45
2019-05-20T14:35:23.219Z,52.46
2019-05-20T14:37:53.615Z,52.50
2019-05-20T14:40:23.910Z,53.14
2019-05-20T14:42:54.228Z,53.26
2019-05-20T14:45:24.559Z,53.14
2019-05-20T14:47:54.784Z,52.97
2019-05-20T14:50:26.086Z,52.78
2019-05-20T14:52:56.369Z,52.62
2019-05-20T14:55:26.585Z,52.56
2019-05-20T14:57:56.862Z,52.56
2019-05-20T15:00:27.248Z,52.65
2019-05-20T15:02:57.562Z,52.55
2019-05-20T15:05:27.910Z,52.52
2019-05-20T15:07:58.332Z,52.36
2019-05-20T15:10:28.522Z,52.25
2019-05-20T15:12:58.692Z,52.21
2019-05-20T15:15:30.172Z,52.23
2019-05-20T15:18:00.519Z,52.32
2019-05-20T15:20:30.743Z,52.38
2019-05-20T15:23:00.986Z,52.52
2019-05-20T15:25:31.283Z,52.60
2019-05-20T15:28:01.508Z,52.64
2019-05-20T15:30:31.830Z,52.73
2019-05-20T15:33:02.921Z,52.64
2019-05-20T15:35:33.806Z,52.57
2019-05-20T15:38:04.150Z,52.55
2019-05-20T15:40:34.657Z,52.42
2019-05-20T15:43:04.914Z,52.36
2019-05-20T15:45:35.239Z,52.39
2019-05-20T15:48:05.537Z,52.34
2019-05-20T15:50:36.007Z,52.33
2019-05-20T15:53:11.054Z,52.44
2019-05-20T15:55:38.502Z,52.52
2019-05-20T15:58:08.781Z,52.62
2019-05-20T16:00:39.128Z,52.74
2019-05-20T16:03:09.267Z,52.84
2019-05-20T16:05:39.678Z,52.94
2019-05-20T16:08:10.218Z,52.99
2019-05-20T16:10:40.481Z,52.80
2019-05-20T16:13:10.826Z,52.60
2019-05-20T16:15:42.166Z,52.59
2019-05-20T16:18:12.735Z,52.55
2019-05-20T16:20:43.079Z,52.56
2019-05-20T16:23:13.446Z,52.58
2019-05-20T16:25:44.073Z,52.65
2019-05-20T16:28:14.205Z,52.57
2019-05-20T16:30:44.493Z,52.52
2019-05-20T16:33:14.864Z,52.50
2019-05-20T16:35:45.254Z,52.40
2019-05-20T16:38:15.610Z,52.38
2019-05-20T16:40:45.898Z,52.31
2019-05-20T16:43:17.479Z,52.27
2019-05-20T16:45:47.774Z,52.26
2019-05-20T16:48:18.142Z,52.18
2019-05-20T16:50:48.349Z,52.18
2019-05-20T16:53:18.588Z,52.16
2019-05-20T16:55:48.866Z,52.20
2019-05-20T16:58:19.517Z,52.19
2019-05-20T17:00:49.739Z,52.18
2019-05-20T17:03:19.989Z,52.16
2019-05-20T17:05:50.328Z,52.14
2019-05-20T17:08:20.586Z,52.12
2019-05-20T17:10:50.850Z,52.11
2019-05-20T17:13:21.158Z,52.10
2019-05-20T17:15:51.640Z,52.09
2019-05-20T17:18:21.943Z,52.09
2019-05-20T17:20:52.103Z,52.09
2019-05-20T17:23:22.447Z,52.06
2019-05-20T17:25:53.742Z,52.13
2019-05-20T17:28:25.025Z,52.14
2019-05-20T17:30:55.363Z,52.18
2019-05-20T17:33:25.744Z,52.25
2019-05-20T17:35:56.129Z,52.32
2019-05-20T17:38:26.551Z,52.28
2019-05-20T17:40:56.878Z,52.45
2019-05-20T17:43:27.299Z,52.45
2019-05-20T17:45:57.646Z,52.50
2019-05-20T17:48:27.965Z,52.60
2019-05-20T17:50:58.183Z,52.73
2019-05-20T17:53:29.823Z,52.71
2019-05-20T17:56:00.215Z,52.72
2019-05-20T17:58:30.612Z,52.78
2019-05-20T18:01:13.645Z,52.02
2019-05-20T18:03:33.177Z,50.91
2019-05-20T18:06:03.747Z,50.38
2019-05-20T18:08:36.238Z,49.83
2019-05-20T18:11:06.791Z,49.56
2019-05-20T18:13:39.090Z,49.14
2019-05-20T18:16:09.558Z,48.83
2019-05-20T18:18:39.882Z,48.66
2019-05-20T18:21:10.005Z,48.56
2019-05-20T18:23:40.248Z,48.75
2019-05-20T18:26:10.453Z,48.84
2019-05-20T18:28:40.616Z,48.91
2019-05-20T18:31:11.176Z,49.40
2019-05-20T18:33:41.475Z,49.40
2019-05-20T18:36:11.761Z,49.50
2019-05-20T18:38:41.985Z,49.42
2019-05-20T18:41:13.406Z,49.45
2019-05-20T18:43:43.692Z,49.67
2019-05-20T18:46:14.003Z,49.77
2019-05-20T18:48:44.725Z,49.53
2019-05-20T18:51:13.347Z,49.17
2019-05-20T18:53:43.940Z,49.00
2019-05-20T18:56:14.220Z,48.88
2019-05-20T18:58:44.578Z,48.91
2019-05-20T19:01:19.694Z,49.10
2019-05-20T19:03:50.094Z,49.44
2019-05-20T19:06:20.698Z,49.79
2019-05-20T19:08:51.232Z,49.80
2019-05-20T19:11:23.380Z,49.92
2019-05-20T19:13:53.866Z,50.08
2019-05-20T19:16:24.260Z,50.27
2019-05-20T19:18:54.603Z,50.28
2019-05-20T19:21:25.023Z,50.36
2019-05-20T19:23:56.355Z,50.36
2019-05-20T19:26:26.678Z,50.30
2019-05-20T19:28:58.062Z,50.08
2019-05-20T19:31:28.724Z,49.64
2019-05-20T19:33:59.265Z,49.43
2019-05-20T19:36:29.630Z,49.29
2019-05-20T19:39:01.540Z,49.69
2019-05-20T19:41:33.529Z,49.83
2019-05-20T19:44:05.464Z,49.88
2019-05-20T19:46:35.892Z,49.97
2019-05-20T19:49:07.248Z,50.01
2019-05-20T19:51:37.822Z,50.03
2019-05-20T19:54:08.405Z,50.09
2019-05-20T19:56:38.827Z,50.21
2019-05-20T19:59:09.117Z,50.32
2019-05-20T20:01:40.525Z,50.30
2019-05-20T20:04:10.813Z,50.29
2019-05-20T20:06:41.080Z,50.32
2019-05-20T20:09:11.452Z,50.33
2019-05-20T20:11:41.840Z,50.36
2019-05-20T20:14:12.297Z,50.33
2019-05-20T20:16:42.643Z,50.40
2019-05-20T20:19:12.907Z,50.46
2019-05-20T20:21:43.225Z,50.16
2019-05-20T20:24:13.595Z,50.01
2019-05-20T20:26:44.353Z,50.00
2019-05-20T20:29:14.607Z,50.05
2019-05-20T20:31:44.969Z,50.10
2019-05-20T20:34:15.227Z,50.14
2019-05-20T20:36:45.464Z,50.19
2019-05-20T20:39:15.716Z,50.20
2019-05-20T20:41:46.034Z,50.13
2019-05-20T20:44:16.403Z,50.08
2019-05-20T20:46:46.824Z,50.07
2019-05-20T20:49:17.146Z,50.09
2019-05-20T20:51:47.476Z,50.11
2019-05-20T20:54:18.075Z,50.16
2019-05-20T20:56:48.386Z,50.27
2019-05-20T20:59:18.653Z,50.29
2019-05-20T21:01:48.941Z,50.31
2019-05-20T21:04:19.183Z,50.41
2019-05-20T21:06:49.471Z,50.49
2019-05-20T21:09:19.746Z,50.54
2019-05-20T21:11:50.023Z,50.59
2019-05-20T21:14:20.380Z,50.64
2019-05-20T21:16:51.161Z,50.72
2019-05-20T21:19:21.402Z,50.71
2019-05-20T21:21:51.742Z,50.78
2019-05-20T21:24:22.068Z,50.81
2019-05-20T21:26:52.371Z,50.91
2019-05-20T21:29:22.660Z,50.99
2019-05-20T21:31:52.778Z,51.15
2019-05-20T21:34:23.069Z,51.25
2019-05-20T21:36:53.797Z,51.35
2019-05-20T21:39:24.051Z,51.40
2019-05-20T21:41:54.406Z,51.49
2019-05-20T21:44:24.599Z,51.54
2019-05-20T21:46:54.842Z,51.55
2019-05-20T21:49:25.204Z,51.64
2019-05-20T21:51:55.626Z,51.65
2019-05-20T21:54:26.466Z,51.70
2019-05-20T21:56:56.895Z,51.74
2019-05-20T21:59:27.208Z,51.77
2019-05-20T22:01:57.535Z,51.76
2019-05-20T22:04:27.882Z,51.77
2019-05-20T22:06:58.320Z,51.71
2019-05-20T22:09:28.529Z,51.76
2019-05-20T22:11:58.685Z,51.76
2019-05-20T22:14:28.952Z,51.75
2019-05-20T22:16:59.340Z,51.75
2019-05-20T22:19:29.559Z,51.77
2019-05-20T22:22:08.117Z,51.77
2019-05-20T22:24:38.316Z,51.79
2019-05-20T22:27:09.220Z,51.73
2019-05-20T22:29:40.467Z,51.73
2019-05-20T22:32:10.962Z,51.72
2019-05-20T22:34:52.815Z,51.70
2019-05-20T22:37:14.018Z,51.73
2019-05-20T22:39:44.308Z,51.74
2019-05-20T22:42:14.461Z,51.73
2019-05-20T22:44:44.903Z,51.71
2019-05-20T22:47:15.189Z,51.67
2019-05-20T22:49:45.498Z,51.65
2019-05-20T22:52:15.763Z,51.65
2019-05-20T22:54:46.088Z,51.64
2019-05-20T22:57:16.407Z,51.62
2019-05-20T22:59:46.765Z,51.60
2019-05-20T23:02:17.223Z,51.57
2019-05-20T23:04:47.512Z,51.57
2019-05-20T23:07:17.942Z,51.57
2019-05-20T23:09:48.188Z,51.55
2019-05-20T23:12:18.452Z,51.52
2019-05-20T23:14:48.834Z,51.52
2019-05-20T23:17:19.557Z,51.52
2019-05-20T23:19:49.987Z,51.46
2019-05-20T23:22:20.349Z,51.45
2019-05-20T23:24:50.599Z,51.44
2019-05-20T23:27:20.876Z,51.43
2019-05-20T23:29:51.318Z,51.38
2019-05-20T23:32:21.635Z,51.39
2019-05-20T23:34:51.955Z,51.36
2019-05-20T23:37:22.247Z,51.34
2019-05-20T23:39:52.434Z,51.32
2019-05-20T23:42:22.735Z,51.30
2019-05-20T23:44:53.067Z,51.35
2019-05-20T23:47:23.335Z,51.32
2019-05-20T23:49:53.531Z,51.28
2019-05-20T23:52:23.683Z,51.27
2019-05-20T23:54:54.029Z,51.26
2019-05-20T23:57:24.394Z,51.21
2019-05-20T23:59:54.643Z,51.18
